Accueil
METAR-TAF:

METAR-TAF

Aéroports :

Kangiqsualujjuaq, Québec, Canada

Aéroport de Kangiqsualujjuaq

latitude: 58-43N, longitude: 065-59W, altitude: 60 m

Observation

Le bulletin a été fait il y a 6 heures et 18 minutes, à 22:00 UTC
Vent 5 kt de sud/sud-est avec des rafales jusqu'à 15 kt, variant entre est/sud-est et sud-ouest
Température -14°C
Humidité 78%
Pression 1004 hPa
Visibilité: 4.8 km
Nuages fragmentés à une hauteur de 2600 ft
Ciel couvert à une hauteur de 3600 ft
neige faible, Chasse-neige basse

METAR: CYLU 232200Z 16005G15KT 120V230 3SM -SN DRSN BKN026 OVC036 M14/M17 A2964 RMK SN3SC2SC3 SNW CVR/MUCH LOOSE LAST STFD OBS/NEXT 241300UTC SLP046

Heure: 23:18 (04:18 UTC)


TAF: absent

Observations et prévisions météorologiques de plus de 4000 aéroports (messages METAR et TAF).

Les stations disponibles sont représentées par des disques jaunes et rouges sur la carte.

Passer la souris dessus pour voir le nom de la station.

Cliquer dessus pour voir les observations et prévisions météorologiques.

Pour changer de carte: cliquez sur les boutons verts avec une croix noire pour zoomer, sur le bouton vert avec un tiret pour effectuer un zoom arrière, ou sur les flèches vertes pour les cartes adjacentes.


METAR-TAF: